Nearby METAR Reports

 

EGEO - Oban, United Kingdom
Distance from station: SSW 18mi, 30km
Updated: 04/12/2019 13:20
NOT Current
Nearby showers, Partly cloudy
Nearby showers, Partly cloudy
 Wind from W
Wind: W 25 mph , 41 km/h
Temperature: 10°C
Wind Chill: 6°C
Dew Point: 5°C
Humidity: 71%
Barometer: 1009 hPa
Summary: Nearby Showers
Clouds: Partly cloudy
Visibility: 6 miles , 10 km
Cloud details: Few Clouds 732 m
Partly cloudy 975 m
2019/12/04 13:20 EGEO 041320Z 26022KT 9999 VCSH FEW024 SCT032 10/05 Q1009
EGPU - Tiree, United Kingdom
Distance from station: WSW 64mi, 103km
Updated: 06/12/2019 08:50
Light rain, Partly cloudy
Light rain, Partly cloudy
 Wind from W
Wind: W 13 mph , 20 km/h
Temperature: 9°C
Wind Chill: 6°C
Dew Point: 8°C
Humidity: 94%
Barometer: 991 hPa
Summary: Light rain
Clouds: Partly cloudy
Visibility: 6 miles , 10 km
Cloud details: Few Clouds 396 m
Partly cloudy 823 m
2019/12/06 08:50 EGPU 060850Z 27011KT 9999 -RA FEW013 SCT027 09/08 Q0991
EGPF - Glasgow, United Kingdom
Distance from station: SSE 66mi, 107km
Updated: 06/12/2019 08:50
Thunderstorm
Thunderstorm
 Wind from WSW
Wind: WSW 12 mph , 19 km/h
Temperature: 10°C
Wind Chill: 7°C
Dew Point: 8°C
Humidity: 88%
Barometer: 992 hPa
Clouds: Thunderstorm
Visibility: 6 miles , 10 km
Cloud details: Partly cloudy 945 m
2019/12/06 08:50 EGPF 060850Z AUTO 25010KT 9999 SCT031/// //////TCU 10/08 Q0992
 
EGPE - Inverness, United Kingdom
Distance from station: NE 71mi, 114km
Updated: 06/12/2019 08:50
Light rain, Mostly cloudy
Light rain, Mostly cloudy
 Wind from SW
Wind: SW 12 mph , 19 km/h
Temperature: 9°C
Wind Chill: 6°C
Dew Point: 9°C
Humidity: 100%
Barometer: 988 hPa
Summary: Light rain
Clouds: Mostly cloudy
Visibility: 6 miles , 10 km
Cloud details: Few Clouds 671 m
Mostly cloudy 914 m
2019/12/06 08:50 EGPE 060850Z 23010KT 9999 -RA FEW022 BKN030 09/09 Q0988
EGPI - Islay/Port Ellen, United Kingdom
Distance from station: SSW 81mi, 131km
Updated: 06/12/2019 08:50
Mostly cloudy
Mostly cloudy
 Wind from WSW
Wind: WSW 20 mph , 31 km/h
Temperature: 10°C
Wind Chill: 7°C
Dew Point: 9°C
Humidity: 94%
Barometer: 993 hPa
Clouds: Mostly cloudy
Visibility: 6 miles , 10 km
Cloud details: Few Clouds 305 m
Partly cloudy 427 m
Mostly cloudy 1463 m
2019/12/06 08:50 EGPI 060850Z 25017KT 9999 FEW010 SCT014 BKN048 10/09 Q0993
EGPN - Dundee/Riverside, United Kingdom
Distance from station: E 86mi, 138km
Updated: 06/12/2019 08:50
Mostly cloudy
Mostly cloudy
 Wind from W
Wind: W 6 mph , 9 km/h
Temperature: 10°C
Wind Chill: 9°C
Dew Point: 9°C
Humidity: 94%
Barometer: 990 hPa
Clouds: Mostly cloudy
Visibility: 6 miles , 10 km
Cloud details: Few Clouds 274 m
Mostly cloudy 610 m
2019/12/06 08:50 EGPN 060850Z 28005KT 9999 FEW009 BKN020 10/09 Q0990
 
EGPK - Prestwick, United Kingdom
Distance from station: SSE 88mi, 141km
Updated: 06/12/2019 08:50
Nearby showers, Mostly cloudy
Nearby showers, Mostly cloudy
 Wind from SW
Wind: SW 14 mph , 22 km/h
Temperature: 10°C
Wind Chill: 7°C
Dew Point: 8°C
Humidity: 88%
Barometer: 994 hPa
Summary: Nearby Showers
Clouds: Mostly cloudy
Visibility: 6 miles , 10 km
Cloud details: Few Clouds 305 m
Partly cloudy 457 m
Mostly cloudy 610 m
2019/12/06 08:50 EGPK 060850Z 23012KT 180V250 9999 VCSH FEW010 SCT015 BKN020 10/08 Q0994
EGPH - Edinburgh, United Kingdom
Distance from station: SE 89mi, 143km
Updated: 06/12/2019 08:50
Light rain, Mostly cloudy
Light rain, Mostly cloudy
 Wind from WSW
Wind: WSW 12 mph , 19 km/h
Temperature: 11°C
Dew Point: 11°C
Humidity: 100%
Barometer: 991 hPa
Summary: Light rain
Clouds: Mostly cloudy
Visibility: 6 miles , 10 km
Cloud details: Partly cloudy 274 m
Mostly cloudy 579 m
Mostly cloudy 914 m
2019/12/06 08:50 EGPH 060850Z 25010KT 9999 7000S -RA SCT009 BKN019 BKN030 11/11 Q0991
EGQK - RAF Kinloss, United Kingdom
Distance from station: NE 90mi, 144km
Updated: 06/12/2019 07:50
Light rain, Mostly cloudy
Light rain, Mostly cloudy
 Wind from SW
Wind: SW 7 mph , 11 km/h
Temperature: 10°C
Wind Chill: 8°C
Dew Point: 9°C
Humidity: 94%
Barometer: 988 hPa
Summary: Light rain
Clouds: Mostly cloudy
Visibility: 6 miles , 10 km
Cloud details: Few Clouds 884 m
Mostly cloudy 1006 m
2019/12/06 07:50 EGQK 060750Z AUTO 22006KT 9999 -RA FEW029/// BKN033/// 10/09 Q0988
 
EGEC - Campbeltown, United Kingdom
Distance from station: S 90mi, 145km
Updated: 06/12/2019 07:50
Rain, Mostly cloudy
Rain, Mostly cloudy
 Wind from W
Wind: W 21 mph , 33 km/h
Temperature: 10°C
Wind Chill: 6°C
Dew Point: 9°C
Humidity: 94%
Barometer: 993 hPa
Summary: Rain
Clouds: Mostly cloudy
Visibility: 6 miles , 10 km
Cloud details: Few Clouds 427 m
Mostly cloudy 640 m
2019/12/06 07:50 EGEC 060750Z 27018KT 9999 RA FEW014 BKN021 10/09 Q0993
EGQA - Tain Range, United Kingdom
Distance from station: NNE 91mi, 146km
Updated: 05/12/2019 13:50
NOT Current
Nearby showers, Partly cloudy
Nearby showers, Partly cloudy
 Wind from S
Wind: S 10 mph , 17 km/h
Summary: Nearby Showers
Clouds: Partly cloudy
Visibility: 6 miles , 10 km
Cloud details: Few Clouds 183 m
Partly cloudy 457 m
2019/12/05 13:50 EGQA 051350Z 19009KT 9999 VCSH FEW006 SCT015 10/// Q0991 RMK WHT
EGQL - RAF Leuchars, United Kingdom
Distance from station: ESE 93mi, 149km
Updated: 06/12/2019 07:50
Light rain, Mostly cloudy
Light rain, Mostly cloudy
 Wind from WSW
Wind: WSW 15 mph , 24 km/h
Temperature: 11°C
Dew Point: 10°C
Humidity: 94%
Barometer: 990 hPa
Summary: Light rain
Clouds: Mostly cloudy
Visibility: 4 miles , 7 km
Cloud details: Partly cloudy 396 m
Mostly cloudy 1524 m
2019/12/06 07:50 EGQL 060750Z 24013KT 7000 -RA SCT013 BKN050 11/10 Q0990 GRN
 
EGPL - Benbecula, United Kingdom
Distance from station: WNW 96mi, 154km
Updated: 06/12/2019 08:50
Partly cloudy
Partly cloudy
 Wind from W
Wind: W 16 mph , 26 km/h
Temperature: 9°C
Wind Chill: 6°C
Dew Point: 8°C
Humidity: 94%
Barometer: 990 hPa
Clouds: Partly cloudy
Visibility: 6 miles , 10 km
Cloud details: Few Clouds 518 m
Partly cloudy 671 m
2019/12/06 08:50 EGPL 060850Z 26014KT 9999 FEW017 SCT022 09/08 Q0990
EGQS - RAF Lossiemouth, United Kingdom
Distance from station: NE 99mi, 160km
Updated: 06/12/2019 08:19
Light rain, Mostly cloudy
Light rain, Mostly cloudy
 Wind from WSW
Wind: WSW 6 mph , 9 km/h
Temperature: 9°C
Wind Chill: 7°C
Dew Point: 8°C
Humidity: 94%
Barometer: 988 hPa
Summary: Light rain
Clouds: Mostly cloudy
Visibility: 6 miles , 10 km
Cloud details: Few Clouds 1067 m
Partly cloudy 1219 m
Mostly cloudy 1829 m
2019/12/06 08:19 EGQS 060819Z 24005KT 9999 7000W -RA FEW035 SCT040 BKN060 09/08 Q0988 TEMPO 9999 NSW RMK WHT TEMPO BLU
EGPO - Stornoway, United Kingdom
Distance from station: NNW 111mi, 179km
Updated: 06/12/2019 08:50
Mostly cloudy
Mostly cloudy
 Wind from W
Wind: W 14 mph , 22 km/h
Temperature: 8°C
Wind Chill: 4°C
Dew Point: 7°C
Humidity: 93%
Barometer: 988 hPa
Clouds: Mostly cloudy
Visibility: 6 miles , 10 km
Cloud details: Few Clouds 457 m
Mostly cloudy 1280 m
2019/12/06 08:50 EGPO 060850Z 27012KT 9999 FEW015 BKN042 08/07 Q0988
 
EGPD - Aberdeen/Dyce, United Kingdom
Distance from station: ENE 118mi, 190km
Updated: 06/12/2019 08:50
Light rain, Thunderstorm
Light rain, Thunderstorm
 Wind from SW
Wind: SW 9 mph , 15 km/h
Temperature: 10°C
Wind Chill: 8°C
Dew Point: 8°C
Humidity: 88%
Barometer: 989 hPa
Summary: Light rain
Clouds: Thunderstorm
Visibility: 4 miles , 6 km
2019/12/06 08:50 EGPD 060850Z AUTO 23008KT 6000 -RA //////TCU 10/08 Q0989
EGAE - Eglinton/Londond, United Kingdom
Distance from station: SSW 138mi, 222km
Updated: 06/12/2019 08:50
Light rain, Showers, Partly cloudy
Light rain, Showers, Partly cloudy
 Wind from WSW
Wind: WSW 14 mph , 22 km/h
Temperature: 9°C
Wind Chill: 6°C
Dew Point: 8°C
Humidity: 94%
Barometer: 994 hPa
Summary: Light rain, Showers
Clouds: Partly cloudy
Visibility: 6 miles , 9 km
Cloud details: Few Clouds 244 m
Partly cloudy 701 m
2019/12/06 08:50 EGAE 060850Z 24012KT 9000 -SHRA FEW008 SCT023 09/08 Q0994
EGPC - Wick, United Kingdom
Distance from station: NNE 144mi, 232km
Updated: 06/12/2019 08:50
Partly cloudy
Partly cloudy
 Wind from WSW
Wind: WSW 6 mph , 9 km/h
Temperature: 8°C
Wind Chill: 6°C
Dew Point: 7°C
Humidity: 93%
Barometer: 987 hPa
Clouds: Partly cloudy
Visibility: 6 miles , 10 km
Cloud details: Few Clouds 457 m
Partly cloudy 792 m
2019/12/06 08:50 EGPC 060850Z 24005KT 200V270 9999 FEW015 SCT026 08/07 Q0987

Metar display script from Saratoga-Weather.org